Time;durP1;ratioP1;P1;durP2;ratioP2;P2;SDS_P1;SDS_P2;PMS_P1;PMS_P2;Temp;Humidity;BMP_temperature;BMP_pressure;BME280_temperature;BME280_humidity;BME280_pressure;Samples;Min_cycle;Max_cycle;Signal;HPM_P1;HPM_P2
2023/10/02 00:01:18;;;;;;;8.80;2.72;;;12.20;99.90;;;;;;5051436;28;20035;-78
2023/10/02 00:03:48;;;;;;;8.27;2.70;;;12.20;99.90;;;;;;5070719;28;20073;-78
2023/10/02 00:06:17;;;;;;;7.75;2.10;;;12.20;99.90;;;;;;5069758;28;20104;-78
2023/10/02 00:08:48;;;;;;;10.85;2.78;;;12.20;99.90;;;;;;5052141;28;20021;-77
2023/10/02 00:11:39;;;;;;;9.38;2.92;;;12.10;99.90;;;;;;5069536;28;20032;-78
2023/10/02 00:14:26;;;;;;;9.90;3.53;;;12.10;99.90;;;;;;5052024;28;20045;-79
2023/10/02 00:17:16;;;;;;;11.55;3.58;;;12.10;99.90;;;;;;5070490;28;20028;-77
2023/10/02 00:19:46;;;;;;;10.38;3.92;;;12.00;99.90;;;;;;5072835;28;20054;-78
2023/10/02 00:25:03;;;;;;;8.40;3.25;;;12.00;99.90;;;;;;5073881;28;20134;-77
2023/10/02 00:27:29;;;;;;;9.95;3.00;;;12.00;99.90;;;;;;5073919;28;20025;-78
2023/10/02 00:29:59;;;;;;;19.38;3.90;;;12.00;99.90;;;;;;5074208;28;20032;-78
2023/10/02 00:32:34;;;;;;;9.65;3.55;;;11.90;99.90;;;;;;5073659;28;20081;-78
2023/10/02 00:35:02;;;;;;;10.60;3.05;;;11.90;99.90;;;;;;5073900;28;20024;-78
2023/10/02 00:37:45;;;;;;;9.18;3.40;;;11.90;99.90;;;;;;5073571;28;20028;-77
2023/10/02 00:40:20;;;;;;;12.48;3.28;;;11.90;99.90;;;;;;5073540;28;20072;-78
2023/10/02 00:42:54;;;;;;;9.07;3.00;;;11.80;99.90;;;;;;5073767;28;20068;-77
2023/10/02 00:45:21;;;;;;;10.05;3.13;;;11.80;99.90;;;;;;5073528;28;20021;-78
2023/10/02 00:47:49;;;;;;;10.65;3.17;;;11.80;99.90;;;;;;5055509;28;20044;-78
2023/10/02 00:50:21;;;;;;;12.30;3.53;;;11.80;99.90;;;;;;5072830;28;20039;-77
2023/10/02 00:52:47;;;;;;;9.33;3.13;;;11.70;99.90;;;;;;5073919;28;20115;-77
2023/10/02 00:55:17;;;;;;;10.57;3.33;;;11.70;99.90;;;;;;5073409;28;20374;-77
2023/10/02 00:57:45;;;;;;;11.77;3.80;;;11.70;99.90;;;;;;5073689;28;20032;-77
2023/10/02 01:00:18;;;;;;;12.60;3.25;;;11.70;99.90;;;;;;5072768;28;20116;-78
2023/10/02 01:02:46;;;;;;;10.00;3.38;;;11.70;99.90;;;;;;5073295;28;20025;-77
2023/10/02 01:05:16;;;;;;;9.13;2.90;;;11.70;99.90;;;;;;5072752;28;20411;-78
2023/10/02 01:07:44;;;;;;;13.57;3.03;;;11.70;99.90;;;;;;5073503;28;20028;-77
2023/10/02 01:10:20;;;;;;;11.82;3.58;;;11.70;99.90;;;;;;5072846;28;20054;-78
2023/10/02 01:12:49;;;;;;;8.75;3.08;;;11.70;99.90;;;;;;5073404;28;20048;-77
2023/10/02 01:15:19;;;;;;;9.20;2.92;;;11.60;99.90;;;;;;5072982;28;20024;-77
2023/10/02 01:17:48;;;;;;;7.35;3.30;;;11.60;99.90;;;;;;5073222;28;20032;-77
2023/10/02 01:20:21;;;;;;;9.02;3.00;;;11.60;99.90;;;;;;5072968;28;20071;-78
2023/10/02 01:22:52;;;;;;;10.27;3.20;;;11.60;99.90;;;;;;5073282;28;20134;-77
2023/10/02 01:25:24;;;;;;;11.82;3.90;;;11.60;99.90;;;;;;5054955;28;20020;-77
2023/10/02 01:27:51;;;;;;;8.23;3.03;;;11.50;99.90;;;;;;5073359;28;20060;-77
2023/10/02 01:30:20;;;;;;;8.13;2.92;;;11.50;99.90;;;;;;5072939;28;20123;-77
2023/10/02 01:33:15;;;;;;;9.80;3.13;;;11.50;99.90;;;;;;5073267;28;20024;-77
2023/10/02 01:35:46;;;;;;;10.52;3.67;;;11.50;99.90;;;;;;5073314;28;20052;-78
2023/10/02 01:38:15;;;;;;;9.10;2.92;;;11.50;99.90;;;;;;5072312;28;20028;-80
2023/10/02 01:40:42;;;;;;;11.18;3.50;;;11.50;99.90;;;;;;5072811;28;20037;-78
2023/10/02 01:43:14;;;;;;;13.07;3.83;;;11.50;99.90;;;;;;5072498;28;20035;-77
2023/10/02 01:45:44;;;;;;;10.48;3.10;;;11.40;99.90;;;;;;5072547;28;20032;-77
2023/10/02 01:48:15;;;;;;;15.63;4.32;;;11.50;99.90;;;;;;5072238;28;20049;-78
2023/10/02 01:50:43;;;;;;;10.85;3.80;;;11.40;99.90;;;;;;5072471;28;20028;-77
2023/10/02 01:53:28;;;;;;;7.43;3.50;;;11.40;99.90;;;;;;5072665;28;20107;-78
2023/10/02 01:56:00;;;;;;;12.90;2.75;;;11.40;99.90;;;;;;5072820;28;20050;-77
2023/10/02 01:58:27;;;;;;;15.27;3.40;;;11.40;99.90;;;;;;5072071;28;20114;-77
2023/10/02 02:00:54;;;;;;;10.05;2.95;;;11.50;99.90;;;;;;5072746;28;20037;-77
2023/10/02 02:03:21;;;;;;;8.40;2.45;;;11.50;99.90;;;;;;5071904;28;20025;-77
2023/10/02 02:05:49;;;;;;;9.77;3.00;;;11.50;99.90;;;;;;5072829;28;20032;-77
2023/10/02 02:08:24;;;;;;;7.35;2.75;;;11.50;99.90;;;;;;5071787;28;20029;-77
2023/10/02 02:11:14;;;;;;;10.05;3.08;;;11.60;99.90;;;;;;5072377;28;20454;-78
2023/10/02 02:13:44;;;;;;;13.48;2.47;;;11.60;99.90;;;;;;5071749;28;20039;-78
2023/10/02 02:16:33;;;;;;;11.65;2.45;;;11.60;99.90;;;;;;5071787;28;20020;-78
2023/10/02 02:19:05;;;;;;;8.98;2.42;;;11.60;99.90;;;;;;5054409;28;20407;-77
2023/10/02 02:21:32;;;;;;;8.52;2.42;;;11.70;99.90;;;;;;5054263;28;20028;-78
2023/10/02 02:24:06;;;;;;;5.10;1.95;;;11.70;99.90;;;;;;5072188;28;20024;-77
2023/10/02 02:26:39;;;;;;;11.95;3.30;;;11.70;99.90;;;;;;5071536;28;20036;-78
2023/10/02 02:29:05;;;;;;;9.05;2.33;;;11.70;99.90;;;;;;5071788;28;20040;-78
2023/10/02 02:31:39;;;;;;;16.90;2.85;;;11.60;99.90;;;;;;5053633;28;20093;-78
2023/10/02 02:34:16;;;;;;;13.27;2.80;;;11.60;99.90;;;;;;5072051;28;20024;-77
2023/10/02 02:36:46;;;;;;;7.93;2.17;;;11.60;99.90;;;;;;5071565;28;20479;-77
2023/10/02 02:39:16;;;;;;;9.13;2.65;;;11.60;99.90;;;;;;5071559;28;20135;-79
2023/10/02 02:42:08;;;;;;;9.80;2.85;;;11.60;99.90;;;;;;5072098;28;20052;-77
2023/10/02 02:44:39;;;;;;;9.90;2.42;;;11.60;99.90;;;;;;5071264;28;20096;-77
2023/10/02 02:47:09;;;;;;;11.43;2.35;;;11.60;99.90;;;;;;5071369;28;20086;-77
2023/10/02 02:49:48;;;;;;;9.75;2.60;;;11.60;99.90;;;;;;5071289;28;20032;-77
2023/10/02 02:52:32;;;;;;;9.75;2.70;;;11.60;99.90;;;;;;5071534;28;20059;-80
2023/10/02 02:55:03;;;;;;;9.05;2.63;;;11.60;99.90;;;;;;5071439;28;20028;-78
2023/10/02 02:57:31;;;;;;;12.25;2.42;;;11.50;99.90;;;;;;5071129;28;20020;-78
2023/10/02 03:02:52;;;;;;;6.78;2.05;;;11.50;99.90;;;;;;5071782;28;20142;-78
2023/10/02 03:05:22;;;;;;;12.48;2.47;;;11.50;99.90;;;;;;5071013;28;20029;-79
2023/10/02 03:07:54;;;;;;;7.85;2.25;;;11.50;99.90;;;;;;5071424;28;20024;-78
2023/10/02 03:10:23;;;;;;;6.55;2.50;;;11.50;99.90;;;;;;5071347;28;20024;-78
2023/10/02 03:12:51;;;;;;;9.30;2.63;;;11.50;99.90;;;;;;5071525;28;20037;-78
2023/10/02 03:15:19;;;;;;;11.82;2.60;;;11.50;99.90;;;;;;5070721;28;20058;-79
2023/10/02 03:17:51;;;;;;;8.82;2.13;;;11.50;99.90;;;;;;5071246;28;20086;-78
2023/10/02 03:20:23;;;;;;;7.82;2.30;;;11.40;99.90;;;;;;5070704;28;20052;-79
2023/10/02 03:22:53;;;;;;;9.83;2.77;;;11.40;99.90;;;;;;5071173;28;20029;-78
2023/10/02 03:25:47;;;;;;;7.63;2.42;;;11.40;99.90;;;;;;5070865;28;20060;-78
2023/10/02 03:28:16;;;;;;;12.35;2.55;;;11.40;99.90;;;;;;5069938;28;20036;-78
2023/10/02 03:30:47;;;;;;;9.25;2.40;;;11.40;99.90;;;;;;5071018;28;20135;-78
2023/10/02 03:33:18;;;;;;;10.18;2.28;;;11.40;99.90;;;;;;5070856;28;20078;-78
2023/10/02 03:38:43;;;;;;;6.80;2.10;;;11.40;99.90;;;;;;5061050;28;20043;-78
2023/10/02 03:41:13;;;;;;;7.15;2.15;;;11.50;99.90;;;;;;5070684;28;20080;-78
2023/10/02 03:43:43;;;;;;;14.43;2.47;;;11.50;99.90;;;;;;5070017;28;20443;-78
2023/10/02 03:46:17;;;;;;;8.68;2.38;;;11.40;99.90;;;;;;5070741;28;20041;-78
2023/10/02 03:48:51;;;;;;;12.13;1.98;;;11.50;99.90;;;;;;5070061;28;20197;-78
2023/10/02 03:51:35;;;;;;;8.00;2.10;;;11.40;99.90;;;;;;5070678;28;20040;-79
2023/10/02 03:54:17;;;;;;;10.18;2.20;;;11.40;99.90;;;;;;5069707;28;20029;-78
2023/10/02 03:56:47;;;;;;;8.40;2.10;;;11.40;99.90;;;;;;5070703;28;20031;-78
2023/10/02 03:59:17;;;;;;;10.00;1.75;;;11.40;99.90;;;;;;5070686;28;20025;-78
2023/10/02 04:01:43;;;;;;;10.00;2.03;;;11.40;99.90;;;;;;5070154;28;20025;-78
2023/10/02 04:06:53;;;;;;;8.35;2.30;;;11.50;99.90;;;;;;5070179;28;20071;-78
2023/10/02 04:11:48;;;;;;;9.15;2.08;;;11.40;99.90;;;;;;5070524;28;20036;-78
2023/10/02 04:14:17;;;;;;;5.22;1.92;;;11.30;99.90;;;;;;5070358;28;20021;-78
2023/10/02 04:16:59;;;;;;;7.25;2.47;;;11.30;99.90;;;;;;5069821;28;20020;-78
2023/10/02 04:19:26;;;;;;;8.35;1.95;;;11.30;99.90;;;;;;5069868;28;20129;-78
2023/10/02 04:21:53;;;;;;;6.97;1.90;;;11.30;99.90;;;;;;5070559;28;20040;-77
2023/10/02 04:24:29;;;;;;;6.53;2.20;;;11.20;99.90;;;;;;5052256;28;20039;-79
2023/10/02 04:26:57;;;;;;;6.88;1.98;;;11.20;99.90;;;;;;5070359;28;20051;-78
2023/10/02 04:29:37;;;;;;;10.82;2.20;;;11.10;99.90;;;;;;5069892;28;20039;-78
2023/10/02 04:32:14;;;;;;;4.35;1.90;;;11.10;99.90;;;;;;5070367;28;20035;-78
2023/10/02 04:34:46;;;;;;;8.30;2.25;;;11.10;99.90;;;;;;5069650;28;20703;-78
2023/10/02 04:37:20;;;;;;;7.10;2.03;;;11.10;99.90;;;;;;5070166;28;20024;-78
2023/10/02 04:45:20;;;;;;;5.55;2.03;;;11.00;99.90;;;;;;5069930;28;20038;-78
2023/10/02 04:47:48;;;;;;;9.73;2.72;;;11.00;99.90;;;;;;5069473;28;20095;-78
2023/10/02 04:53:04;;;;;;;7.22;2.10;;;11.00;99.90;;;;;;5069367;28;20068;-78
2023/10/02 04:55:43;;;;;;;8.18;2.25;;;11.00;99.90;;;;;;5069232;28;20032;-78
2023/10/02 04:58:19;;;;;;;11.00;2.35;;;11.00;99.90;;;;;;5069924;28;20029;-78
2023/10/02 05:03:55;;;;;;;10.95;3.15;;;10.90;99.90;;;;;;5069288;28;20197;-78
2023/10/02 05:12:03;;;;;;;7.45;2.58;;;10.90;99.90;;;;;;5072616;28;20028;-77
2023/10/02 05:14:33;;;;;;;12.55;2.63;;;10.90;99.90;;;;;;5072841;28;20032;-79
2023/10/02 05:17:19;;;;;;;9.25;2.35;;;10.90;99.90;;;;;;5055842;28;20025;-78
2023/10/02 05:19:57;;;;;;;7.90;2.38;;;10.90;99.90;;;;;;5072566;28;20025;-78
2023/10/02 05:22:24;;;;;;;5.20;2.13;;;10.90;99.90;;;;;;5073256;28;20518;-78
2023/10/02 05:24:58;;;;;;;6.85;2.42;;;10.80;99.90;;;;;;5073180;28;20111;-78
2023/10/02 05:27:29;;;;;;;10.00;2.60;;;10.80;99.90;;;;;;5072939;28;20052;-79
2023/10/02 05:29:58;;;;;;;9.68;2.80;;;10.80;99.90;;;;;;5073350;28;20052;-78
2023/10/02 05:32:29;;;;;;;10.23;2.78;;;10.80;99.90;;;;;;5072388;28;20035;-79
2023/10/02 05:35:05;;;;;;;10.52;2.28;;;10.80;99.90;;;;;;5072938;28;20116;-78
2023/10/02 05:37:32;;;;;;;10.35;3.38;;;10.70;99.90;;;;;;5072896;28;20031;-78
2023/10/02 05:43:09;;;;;;;8.98;2.47;;;10.70;99.90;;;;;;5072168;28;20111;-78
2023/10/02 05:45:39;;;;;;;13.15;2.92;;;10.70;99.90;;;;;;5072045;28;20044;-78
2023/10/02 05:48:14;;;;;;;9.07;3.00;;;10.70;99.90;;;;;;5072304;28;20052;-78
2023/10/02 05:50:47;;;;;;;6.55;2.40;;;10.70;99.90;;;;;;5071808;28;20354;-78
2023/10/02 05:53:17;;;;;;;8.32;2.80;;;10.60;99.90;;;;;;5055183;28;20131;-78
2023/10/02 05:58:30;;;;;;;8.32;2.50;;;10.60;99.90;;;;;;5072030;28;20078;-79
2023/10/02 06:00:58;;;;;;;12.55;3.38;;;10.70;99.90;;;;;;5072356;28;20024;-77
2023/10/02 06:03:24;;;;;;;13.77;2.70;;;10.70;99.90;;;;;;5072851;28;20036;-77
2023/10/02 06:08:34;;;;;;;8.82;2.70;;;10.80;99.90;;;;;;5071651;28;20113;-77
2023/10/02 06:11:25;;;;;;;6.28;2.80;;;10.80;99.90;;;;;;5053804;28;20154;-78
2023/10/02 06:13:55;;;;;;;9.07;2.72;;;10.80;99.90;;;;;;5053956;28;20104;-78
2023/10/02 06:16:26;;;;;;;10.70;2.50;;;10.90;99.90;;;;;;5071324;28;20052;-77
2023/10/02 06:19:01;;;;;;;7.00;2.00;;;10.90;99.90;;;;;;5071714;28;20036;-77
2023/10/02 06:21:40;;;;;;;8.43;2.30;;;10.90;99.90;;;;;;5071596;28;20112;-79
2023/10/02 06:24:07;;;;;;;11.20;2.70;;;10.90;99.90;;;;;;5071496;28;20035;-77
2023/10/02 06:26:49;;;;;;;12.43;2.50;;;10.80;99.90;;;;;;5071136;28;20075;-77
2023/10/02 06:29:22;;;;;;;12.02;3.10;;;10.90;99.90;;;;;;5056082;28;20474;-76
2023/10/02 06:31:51;;;;;;;9.38;2.80;;;10.90;99.90;;;;;;5071432;28;20106;-77
2023/10/02 06:34:19;;;;;;;11.15;3.30;;;10.90;99.90;;;;;;5071708;28;20029;-77
2023/10/02 06:37:02;;;;;;;12.93;3.42;;;10.90;99.90;;;;;;5053031;28;20040;-78
2023/10/02 06:39:35;;;;;;;6.20;2.60;;;10.90;99.90;;;;;;5071640;28;20513;-79
2023/10/02 06:42:04;;;;;;;7.15;2.65;;;10.90;99.90;;;;;;5071376;28;20033;-76
2023/10/02 06:44:41;;;;;;;6.32;2.67;;;10.90;99.90;;;;;;5071273;28;20036;-78
2023/10/02 06:47:11;;;;;;;29.17;12.77;;;10.90;99.90;;;;;;5053242;28;20025;-77
2023/10/02 06:49:45;;;;;;;17.05;7.07;;;10.90;99.90;;;;;;5070871;28;20115;-77
2023/10/02 06:52:17;;;;;;;12.68;5.72;;;10.90;99.90;;;;;;5071093;28;20033;-77
2023/10/02 06:54:56;;;;;;;24.88;10.40;;;11.00;99.90;;;;;;5070769;28;20539;-77
2023/10/02 06:57:24;;;;;;;19.67;8.32;;;11.00;99.90;;;;;;5054593;28;20177;-77
2023/10/02 06:59:54;;;;;;;15.23;4.15;;;11.00;99.90;;;;;;5070780;28;20107;-77
2023/10/02 07:02:20;;;;;;;13.88;3.80;;;11.00;99.90;;;;;;5071022;28;20126;-78
2023/10/02 07:04:50;;;;;;;14.30;4.10;;;11.00;99.90;;;;;;5070394;28;20105;-77
2023/10/02 07:07:25;;;;;;;12.15;3.72;;;11.10;99.90;;;;;;5071048;28;20090;-77
2023/10/02 07:09:55;;;;;;;10.68;3.42;;;11.10;99.90;;;;;;5070202;28;20107;-78
2023/10/02 07:12:22;;;;;;;9.95;3.30;;;11.10;99.90;;;;;;5070993;28;20480;-78
2023/10/02 07:14:48;;;;;;;11.43;3.15;;;11.10;99.90;;;;;;5070418;28;20448;-78
2023/10/02 07:17:17;;;;;;;8.65;3.33;;;11.20;99.90;;;;;;5070828;28;20063;-78
2023/10/02 07:19:50;;;;;;;10.23;3.20;;;11.20;99.90;;;;;;5070399;28;20039;-78
2023/10/02 07:22:24;;;;;;;10.90;2.67;;;11.30;99.90;;;;;;5071034;28;20078;-78
2023/10/02 07:24:55;;;;;;;8.93;2.72;;;11.30;99.90;;;;;;5052070;28;20068;-78
2023/10/02 07:27:24;;;;;;;15.35;3.40;;;11.40;99.90;;;;;;5070741;28;20024;-77
2023/10/02 07:29:59;;;;;;;13.18;3.55;;;11.50;99.90;;;;;;5070288;28;20032;-78
2023/10/02 07:32:27;;;;;;;13.90;3.20;;;11.50;99.90;;;;;;5070934;28;20040;-78
2023/10/02 07:34:54;;;;;;;13.35;3.50;;;11.60;99.90;;;;;;5070209;28;20032;-78
2023/10/02 07:37:22;;;;;;;7.50;2.63;;;11.60;99.90;;;;;;5070301;28;20036;-78
2023/10/02 07:40:00;;;;;;;10.27;2.70;;;11.70;99.90;;;;;;5070058;28;20067;-78
2023/10/02 07:42:31;;;;;;;7.38;2.60;;;11.80;99.90;;;;;;5070580;28;20056;-78
2023/10/02 07:45:24;;;;;;;16.30;3.08;;;11.80;99.90;;;;;;5070160;28;20036;-78
2023/10/02 07:48:26;;;;;;;;;;;11.90;99.90;;;;;;5070194;28;20052;-78
2023/10/02 07:50:44;;;;;;;8.15;2.90;;;12.00;99.90;;;;;;5065480;28;19919;-78
2023/10/02 07:53:10;;;;;;;11.88;3.47;;;12.00;99.90;;;;;;5070499;28;20032;-78
2023/10/02 07:55:42;;;;;;;9.63;2.38;;;12.10;99.90;;;;;;5070177;28;20151;-79
2023/10/02 07:58:09;;;;;;;16.15;3.38;;;12.10;99.90;;;;;;5070395;28;20154;-78
2023/10/02 08:00:41;;;;;;;11.55;2.50;;;12.20;99.90;;;;;;5069836;28;20028;-79
2023/10/02 08:03:31;;;;;;;7.13;2.43;;;12.20;99.90;;;;;;5052246;28;20029;-76
2023/10/02 08:06:00;;;;;;;7.45;2.60;;;12.20;99.90;;;;;;5031736;28;20028;-77
2023/10/02 08:08:31;;;;;;;13.88;2.80;;;12.30;99.90;;;;;;5050334;28;20408;-77
2023/10/02 08:11:02;;;;;;;9.20;2.60;;;12.30;99.90;;;;;;5049783;28;20495;-77
2023/10/02 08:13:35;;;;;;;6.85;2.33;;;12.40;99.90;;;;;;5050503;28;20029;-77
2023/10/02 08:16:17;;;;;;;9.00;2.40;;;12.40;99.90;;;;;;5050529;28;20029;-77
2023/10/02 08:18:57;;;;;;;11.53;2.77;;;12.40;99.90;;;;;;5049558;28;20447;-78
2023/10/02 08:21:35;;;;;;;15.63;2.55;;;12.50;99.90;;;;;;5034324;28;20035;-76
2023/10/02 08:24:11;;;;;;;14.05;3.25;;;12.50;99.90;;;;;;5049819;28;20029;-76
2023/10/02 08:26:43;;;;;;;7.07;2.30;;;12.60;99.90;;;;;;5049617;28;20021;-77
2023/10/02 08:29:11;;;;;;;7.88;2.78;;;12.60;99.90;;;;;;5050445;28;20021;-77
2023/10/02 08:31:55;;;;;;;7.65;2.35;;;12.70;99.90;;;;;;5050922;28;20470;-79
2023/10/02 08:34:24;;;;;;;14.20;3.00;;;12.80;99.90;;;;;;5050175;28;20029;-77
2023/10/02 08:37:09;;;;;;;9.00;2.42;;;12.90;99.90;;;;;;5049366;28;20029;-77
2023/10/02 08:39:39;;;;;;;13.35;2.53;;;12.90;99.90;;;;;;5050054;28;20071;-78
2023/10/02 08:42:13;;;;;;;9.43;2.58;;;13.00;99.90;;;;;;5053947;28;20037;-77
2023/10/02 08:44:42;;;;;;;10.55;2.30;;;13.10;99.90;;;;;;5042362;28;20067;-77
2023/10/02 08:47:24;;;;;;;8.57;2.28;;;13.20;99.90;;;;;;5073592;28;20021;-76
2023/10/02 08:50:01;;;;;;;8.70;2.53;;;13.20;99.90;;;;;;5073141;28;20039;-76
2023/10/02 08:52:38;;;;;;;11.57;3.20;;;13.30;99.90;;;;;;5073410;28;20035;-76
2023/10/02 08:55:37;;;;;;;12.02;3.35;;;13.40;99.90;;;;;;5053296;28;20033;-78
2023/10/02 08:58:16;;;;;;;6.22;2.78;;;13.40;99.90;;;;;;5073550;28;20021;-77
2023/10/02 09:03:42;;;;;;;12.50;3.13;;;13.50;99.90;;;;;;5073142;28;20038;-78
2023/10/02 09:06:25;;;;;;;13.43;2.72;;;13.50;99.90;;;;;;5073783;28;20040;-77
2023/10/02 09:11:41;;;;;;;7.82;2.60;;;13.50;99.90;;;;;;5034918;28;20101;-78
2023/10/02 09:17:18;;;;;;;10.77;2.40;;;13.60;99.90;;;;;;4991678;28;20037;-77
2023/10/02 09:20:07;;;;;;;7.40;2.38;;;13.60;99.90;;;;;;5060612;28;20093;-78
2023/10/02 09:22:41;;;;;;;9.38;2.65;;;13.70;99.90;;;;;;5073268;28;20054;-77
2023/10/02 09:25:26;;;;;;;8.18;2.65;;;13.70;99.90;;;;;;5073098;28;20305;-78
2023/10/02 09:28:03;;;;;;;9.35;2.17;;;13.80;99.90;;;;;;5072475;28;20103;-78
2023/10/02 09:30:36;;;;;;;8.70;2.40;;;13.80;99.90;;;;;;5073848;28;20119;-77
2023/10/02 09:33:23;;;;;;;8.88;2.00;;;13.90;99.90;;;;;;5055219;28;20473;-78
2023/10/02 09:35:52;;;;;;;11.50;2.88;;;14.00;99.90;;;;;;5072230;28;20027;-77
2023/10/02 09:38:22;;;;;;;8.27;2.80;;;14.10;99.90;;;;;;5054322;28;20081;-77
2023/10/02 09:40:58;;;;;;;10.43;2.78;;;14.10;99.90;;;;;;5071889;28;20127;-76
2023/10/02 09:43:31;;;;;;;10.70;3.13;;;14.20;99.90;;;;;;5072227;28;20487;-77
2023/10/02 09:46:05;;;;;;;10.40;2.60;;;14.30;99.90;;;;;;5072037;28;20029;-77
2023/10/02 09:51:37;;;;;;;7.80;2.30;;;14.30;99.90;;;;;;5071050;28;20433;-77
2023/10/02 09:54:09;;;;;;;16.92;3.92;;;14.40;99.90;;;;;;5072198;28;20215;-77
2023/10/02 09:57:19;;;;;;;9.98;2.45;;;14.40;99.90;;;;;;5072870;28;20115;-77
2023/10/02 09:59:46;;;;;;;6.57;2.05;;;14.30;99.90;;;;;;5061180;28;20044;-77
2023/10/02 10:10:52;;;;;;;8.38;2.17;;;14.30;99.90;;;;;;5071849;28;20049;-77
2023/10/02 10:13:32;;;;;;;10.15;2.33;;;14.40;99.90;;;;;;5071820;28;20028;-77
2023/10/02 10:16:19;;;;;;;9.98;2.30;;;14.30;99.90;;;;;;5071122;28;20024;-77
2023/10/02 10:21:56;;;;;;;5.70;1.90;;;14.40;99.90;;;;;;5071986;28;20046;-77
2023/10/02 10:27:54;;;;;;;5.80;1.85;;;14.40;99.90;;;;;;4969941;28;20118;-79
2023/10/02 10:30:33;;;;;;;9.15;2.42;;;14.40;99.90;;;;;;5057876;28;20107;-78
2023/10/02 10:33:15;;;;;;;8.88;2.10;;;14.40;99.90;;;;;;5071011;28;20021;-78
2023/10/02 10:35:48;;;;;;;6.93;2.03;;;14.40;99.90;;;;;;5071311;28;20067;-79
2023/10/02 10:40:55;;;;;;;10.13;1.92;;;14.50;99.90;;;;;;5069958;28;20331;-78
2023/10/02 10:44:07;;;;;;;9.00;2.00;;;14.50;99.90;;;;;;5070821;28;20108;-79
2023/10/02 10:46:12;;;;;;;9.35;2.33;;;14.60;99.90;;;;;;5056368;28;20036;-77
2023/10/02 10:48:40;;;;;;;9.35;2.40;;;14.60;99.90;;;;;;5052808;28;20040;-77
2023/10/02 10:51:20;;;;;;;11.13;2.45;;;14.60;99.90;;;;;;5070519;28;20075;-76
2023/10/02 10:53:47;;;;;;;14.93;2.67;;;14.50;99.90;;;;;;5070110;28;20028;-77
2023/10/02 10:56:19;;;;;;;8.27;2.30;;;14.50;99.90;;;;;;5071102;28;20035;-76
2023/10/02 10:58:51;;;;;;;10.67;2.40;;;14.60;99.90;;;;;;5070166;28;20040;-77
2023/10/02 11:01:17;;;;;;;9.98;2.05;;;14.60;99.90;;;;;;5070987;28;20272;-78
2023/10/02 11:03:43;;;;;;;8.10;2.38;;;14.60;99.90;;;;;;5069680;28;20028;-78
2023/10/02 11:06:10;;;;;;;7.50;2.00;;;14.60;99.90;;;;;;5070167;28;20078;-77
2023/10/02 11:08:38;;;;;;;11.85;3.08;;;14.60;99.90;;;;;;5070768;28;20044;-77
2023/10/02 11:11:18;;;;;;;8.73;2.67;;;14.60;99.90;;;;;;5069600;28;20060;-77
2023/10/02 11:13:50;;;;;;;11.88;2.72;;;14.70;99.90;;;;;;5070047;28;20033;-79
2023/10/02 11:16:36;;;;;;;10.32;2.10;;;14.70;99.90;;;;;;5070200;28;20033;-77
2023/10/02 11:19:21;;;;;;;8.35;2.45;;;14.60;99.90;;;;;;5069647;28;20043;-77
2023/10/02 11:22:14;;;;;;;10.98;2.30;;;14.60;99.90;;;;;;5051602;28;20032;-77
2023/10/02 11:25:05;;;;;;;8.63;2.10;;;14.60;99.90;;;;;;5070037;28;20021;-77
2023/10/02 11:27:34;;;;;;;9.20;2.72;;;14.60;99.90;;;;;;5070461;28;20439;-77
2023/10/02 11:30:07;;;;;;;11.68;2.67;;;14.60;99.90;;;;;;5069365;28;20106;-77
2023/10/02 11:32:58;;;;;;;5.97;2.10;;;14.60;99.90;;;;;;5070529;28;20071;-77
2023/10/02 11:35:37;;;;;;;6.22;2.17;;;14.60;99.90;;;;;;5053317;28;20033;-77
2023/10/02 11:38:07;;;;;;;14.27;3.03;;;14.60;99.90;;;;;;5032693;28;20095;-77
2023/10/02 11:40:36;;;;;;;7.57;1.92;;;14.60;99.90;;;;;;5050670;28;20064;-77
2023/10/02 11:43:02;;;;;;;8.80;2.08;;;14.70;99.90;;;;;;5049849;28;20116;-77
2023/10/02 11:45:36;;;;;;;11.10;2.65;;;14.70;99.90;;;;;;5050744;28;20440;-77
2023/10/02 11:48:09;;;;;;;7.57;1.95;;;14.70;99.90;;;;;;5026994;28;20427;-77
2023/10/02 11:50:35;;;;;;;8.98;3.00;;;14.80;99.90;;;;;;5012613;28;20463;-77
2023/10/02 11:53:12;;;;;;;6.22;2.42;;;14.80;99.90;;;;;;5013093;28;20049;-77
2023/10/02 11:55:37;;;;;;;6.70;2.28;;;14.80;99.90;;;;;;5029507;28;20033;-78
2023/10/02 11:58:04;;;;;;;10.60;2.60;;;15.00;99.90;;;;;;5012049;28;20028;-78
2023/10/02 12:00:30;;;;;;;8.30;2.40;;;15.10;99.90;;;;;;5011550;28;20039;-77
2023/10/02 12:02:56;;;;;;;8.85;2.22;;;15.10;99.90;;;;;;5029303;28;20119;-77
2023/10/02 12:05:22;;;;;;;10.27;2.60;;;15.10;99.90;;;;;;5029079;28;20425;-77
2023/10/02 12:07:48;;;;;;;9.60;2.13;;;15.20;99.90;;;;;;5029460;28;20401;-78
2023/10/02 12:10:15;;;;;;;10.07;1.98;;;15.20;99.90;;;;;;5029936;28;20025;-77
2023/10/02 12:12:45;;;;;;;9.02;2.70;;;15.20;99.90;;;;;;5012456;28;20044;-77
2023/10/02 12:15:14;;;;;;;6.03;1.90;;;15.20;99.90;;;;;;5029208;28;20040;-77
2023/10/02 12:17:40;;;;;;;7.13;1.70;;;15.10;99.90;;;;;;5029969;28;20052;-77
2023/10/02 12:20:10;;;;;;;9.35;2.05;;;15.10;99.90;;;;;;5029702;28;20037;-76
2023/10/02 12:22:37;;;;;;;8.48;2.33;;;15.20;99.90;;;;;;5030573;28;20059;-78
2023/10/02 12:25:06;;;;;;;7.03;2.13;;;15.20;99.90;;;;;;5029352;28;20030;-78
2023/10/02 12:27:32;;;;;;;6.88;2.50;;;15.20;99.90;;;;;;5029873;28;20086;-78
2023/10/02 12:29:58;;;;;;;8.80;2.70;;;15.20;99.90;;;;;;5029802;28;20073;-78
2023/10/02 12:32:27;;;;;;;9.75;2.42;;;15.20;99.90;;;;;;5030332;28;20061;-78
2023/10/02 12:34:53;;;;;;;13.88;3.03;;;15.20;99.90;;;;;;5012484;28;20353;-77
2023/10/02 12:37:20;;;;;;;10.00;2.72;;;15.20;99.90;;;;;;5030166;28;20034;-77
2023/10/02 12:39:47;;;;;;;9.02;2.33;;;15.20;99.90;;;;;;5030624;28;20037;-80
2023/10/02 12:42:14;;;;;;;10.75;2.47;;;15.20;99.90;;;;;;5030147;28;20026;-78
2023/10/02 12:44:41;;;;;;;7.18;2.22;;;15.20;99.90;;;;;;5030169;28;20111;-78
2023/10/02 12:47:07;;;;;;;9.48;2.63;;;15.10;99.90;;;;;;5030066;28;20250;-78
2023/10/02 12:49:35;;;;;;;7.82;2.55;;;15.20;99.90;;;;;;5051149;28;20084;-78
2023/10/02 12:52:00;;;;;;;7.75;2.78;;;15.10;99.90;;;;;;5050360;28;20033;-78
2023/10/02 12:54:27;;;;;;;6.90;1.88;;;15.20;99.90;;;;;;5051960;28;20033;-76
2023/10/02 12:56:53;;;;;;;7.65;1.83;;;15.10;99.90;;;;;;5050088;28;20478;-77
2023/10/02 12:59:19;;;;;;;7.40;2.50;;;15.20;99.90;;;;;;5052731;28;20029;-77
2023/10/02 13:01:45;;;;;;;12.48;2.35;;;15.10;99.90;;;;;;5035200;28;20029;-78
2023/10/02 13:04:12;;;;;;;7.20;1.90;;;15.20;99.90;;;;;;5049058;28;20035;-77
2023/10/02 13:06:38;;;;;;;10.32;2.30;;;15.30;99.90;;;;;;5050015;28;20036;-76
2023/10/02 13:09:27;;;;;;;6.95;2.22;;;15.30;99.90;;;;;;5049682;28;20021;-77
2023/10/02 13:11:50;;;;;;;8.82;2.10;;;15.40;99.90;;;;;;5049203;28;20104;-80
2023/10/02 13:14:18;;;;;;;8.25;2.03;;;15.40;99.90;;;;;;5031732;28;20083;-78
2023/10/02 13:16:45;;;;;;;4.95;1.88;;;15.50;99.90;;;;;;5050008;28;20025;-77
2023/10/02 13:19:11;;;;;;;6.90;2.35;;;15.50;99.90;;;;;;5051177;28;20054;-78
2023/10/02 13:21:38;;;;;;;9.25;2.40;;;15.60;99.90;;;;;;5032503;28;20029;-77
2023/10/02 13:24:05;;;;;;;5.15;2.15;;;15.70;99.90;;;;;;5050814;28;20036;-78
2023/10/02 13:26:32;;;;;;;8.27;2.28;;;15.70;99.90;;;;;;5053170;28;20040;-77
2023/10/02 13:28:59;;;;;;;10.95;2.45;;;15.80;99.90;;;;;;5055343;28;20025;-77
2023/10/02 13:31:25;;;;;;;7.65;2.00;;;15.80;99.90;;;;;;5054127;28;20041;-77
2023/10/02 13:33:55;;;;;;;10.23;2.97;;;15.80;99.90;;;;;;5052755;28;20025;-79
2023/10/02 13:36:22;;;;;;;9.20;2.53;;;15.80;99.90;;;;;;5053485;28;20049;-78
2023/10/02 13:38:58;;;;;;;6.32;2.58;;;15.80;99.90;;;;;;5053261;28;20408;-79
2023/10/02 13:41:26;;;;;;;7.00;2.00;;;15.80;99.90;;;;;;5053438;28;20090;-77
2023/10/02 13:43:54;;;;;;;7.70;2.42;;;15.80;99.90;;;;;;5052378;28;20538;-78
2023/10/02 13:46:21;;;;;;;7.93;2.83;;;15.80;99.90;;;;;;5055222;28;20035;-77
2023/10/02 13:48:49;;;;;;;4.35;2.17;;;15.80;99.90;;;;;;5053563;28;20075;-78
2023/10/02 13:51:18;;;;;;;8.05;2.72;;;15.80;99.90;;;;;;5053715;28;20131;-78
2023/10/02 13:53:45;;;;;;;7.80;2.22;;;15.80;99.90;;;;;;5054084;28;20021;-78
2023/10/02 13:56:20;;;;;;;11.88;2.25;;;15.70;99.90;;;;;;5036047;28;20069;-79
2023/10/02 13:58:53;;;;;;;8.95;2.33;;;15.70;99.90;;;;;;5058406;28;20029;-78
2023/10/02 14:01:21;;;;;;;;;;;15.60;99.90;;;;;;5036815;28;20056;-78
2023/10/02 14:03:55;;;;;;;9.45;2.33;;;15.50;99.90;;;;;;5036162;28;19911;-78
2023/10/02 14:06:24;;;;;;;7.07;2.35;;;15.50;99.90;;;;;;5053900;28;20082;-78
2023/10/02 14:08:50;;;;;;;8.80;2.08;;;15.40;99.90;;;;;;5036536;28;20025;-77
2023/10/02 14:11:20;;;;;;;5.47;2.03;;;15.40;99.90;;;;;;5034702;28;20033;-77
2023/10/02 14:13:48;;;;;;;6.90;2.10;;;15.40;99.90;;;;;;5053236;28;20029;-77
2023/10/02 14:16:15;;;;;;;7.57;2.30;;;15.40;99.90;;;;;;5052615;28;20055;-77
2023/10/02 14:18:41;;;;;;;5.05;2.00;;;15.40;99.90;;;;;;5035007;28;20048;-77